Time;durP1;ratioP1;P1;durP2;ratioP2;P2;SDS_P1;SDS_P2;PMS_P1;PMS_P2;Temp;Humidity;BMP_temperature;BMP_pressure;BME280_temperature;BME280_humidity;BME280_pressure;Samples;Min_cycle;Max_cycle;Signal;HPM_P1;HPM_P2
2024/03/06 00:02:04;;;;;;;13.00;6.80;;;;;;;4.61;100.00;102337.72;5018206;28;20234;-69
2024/03/06 00:04:30;;;;;;;14.43;7.53;;;;;;;4.74;100.00;102357.88;5017200;28;20454;-67
2024/03/06 00:06:55;;;;;;;11.53;7.00;;;;;;;4.72;100.00;102361.63;5017336;28;20189;-68
2024/03/06 00:09:21;;;;;;;11.73;6.77;;;;;;;4.79;100.00;102377.91;5012457;28;20486;-68
2024/03/06 00:11:46;;;;;;;10.03;6.33;;;;;;;4.54;100.00;102337.34;5015797;28;20213;-68
2024/03/06 00:14:14;;;;;;;12.80;7.73;;;;;;;4.87;100.00;102368.34;5015083;28;20703;-66
2024/03/06 00:16:40;;;;;;;14.07;7.70;;;;;;;4.86;100.00;102344.53;5022451;28;20204;-67
2024/03/06 00:19:05;;;;;;;12.93;7.80;;;;;;;4.78;100.00;102347.00;5023097;28;20455;-68
2024/03/06 00:21:31;;;;;;;12.07;6.70;;;;;;;4.41;100.00;102310.06;5010539;28;20216;-68
2024/03/06 00:23:56;;;;;;;13.13;7.70;;;;;;;4.94;100.00;102405.91;5014740;28;20632;-68
2024/03/06 00:26:22;;;;;;;13.00;7.63;;;;;;;4.96;100.00;102378.22;5017252;28;20556;-68
2024/03/06 00:28:47;;;;;;;11.63;6.77;;;;;;;4.88;100.00;102359.38;5011234;28;20212;-67
2024/03/06 00:31:13;;;;;;;12.60;6.97;;;;;;;4.61;100.00;102288.06;5014245;28;20205;-66
2024/03/06 00:33:40;;;;;;;9.93;6.50;;;;;;;4.89;100.00;102350.47;5017668;28;20184;-67
2024/03/06 00:36:06;;;;;;;11.67;6.87;;;;;;;4.53;100.00;102295.78;5009865;28;20334;-68
2024/03/06 00:38:33;;;;;;;12.67;7.23;;;;;;;4.28;100.00;102263.25;5013663;28;20577;-67
2024/03/06 00:40:59;;;;;;;13.57;7.57;;;;;;;4.60;100.00;102283.72;5013454;28;20452;-67
2024/03/06 00:43:26;;;;;;;11.33;7.40;;;;;;;4.84;100.00;102303.94;5007795;28;20431;-67
2024/03/06 00:45:52;;;;;;;10.50;6.60;;;;;;;4.85;100.00;102324.25;5027767;28;20185;-66
2024/03/06 00:48:19;;;;;;;16.53;7.43;;;;;;;4.87;100.00;102335.59;5010667;28;20439;-67
2024/03/06 00:50:45;;;;;;;14.77;6.80;;;;;;;4.76;100.00;102325.84;5010445;28;20200;-66
2024/03/06 00:53:10;;;;;;;13.93;7.37;;;;;;;4.52;100.00;102307.41;5012114;28;20443;-66
2024/03/06 00:55:36;;;;;;;10.60;6.90;;;;;;;4.57;100.00;102325.63;5009422;28;20749;-68
2024/03/06 00:58:02;;;;;;;13.33;7.17;;;;;;;4.71;100.00;102355.44;5012425;28;20196;-68
2024/03/06 01:00:27;;;;;;;14.63;7.60;;;;;;;4.84;100.00;102384.56;5012680;28;20593;-66
2024/03/06 01:02:53;;;;;;;12.80;7.50;;;;;;;4.43;100.00;102340.03;5012923;28;20239;-67
2024/03/06 01:05:18;;;;;;;12.23;6.97;;;;;;;4.39;100.00;102336.75;5010173;28;20275;-68
2024/03/06 01:07:44;;;;;;;14.27;7.37;;;;;;;4.62;100.00;102382.75;5008831;28;20185;-67
2024/03/06 01:10:10;;;;;;;11.00;7.00;;;;;;;4.72;100.00;102402.34;5012712;28;20698;-68
2024/03/06 01:12:36;;;;;;;12.47;8.10;;;;;;;4.70;100.00;102398.94;5029234;28;20176;-67
2024/03/06 01:15:02;;;;;;;13.23;7.73;;;;;;;4.67;100.00;102399.19;5017810;28;20520;-67
2024/03/06 01:17:28;;;;;;;15.60;7.30;;;;;;;4.83;100.00;102417.44;5013475;28;20192;-66
2024/03/06 01:19:53;;;;;;;12.23;8.10;;;;;;;4.52;100.00;102380.00;5014618;28;20567;-67
2024/03/06 01:22:19;;;;;;;11.73;7.70;;;;;;;4.83;100.00;102445.81;5013027;28;20681;-67
2024/03/06 01:24:44;;;;;;;14.27;8.67;;;;;;;4.58;100.00;102407.06;5012358;28;20181;-67
2024/03/06 01:27:10;;;;;;;11.33;7.30;;;;;;;4.85;100.00;102468.66;5016644;28;20288;-68
2024/03/06 01:29:36;;;;;;;12.17;8.00;;;;;;;4.60;100.00;102429.88;5017307;28;20196;-68
2024/03/06 01:32:05;;;;;;;13.93;7.83;;;;;;;4.83;100.00;102491.88;5027204;28;20961;-68
2024/03/06 01:34:30;;;;;;;12.47;7.50;;;;;;;4.74;100.00;102504.09;5013435;28;20239;-68
2024/03/06 01:36:55;;;;;;;14.13;8.80;;;;;;;4.76;100.00;102515.41;5010929;28;20452;-68
2024/03/06 01:39:21;;;;;;;14.30;8.77;;;;;;;4.80;100.00;102521.34;5009226;28;20192;-67
2024/03/06 01:41:48;;;;;;;13.57;8.57;;;;;;;4.49;100.00;102469.75;5012334;28;20209;-67
2024/03/06 01:44:14;;;;;;;17.53;8.93;;;;;;;4.56;100.00;102465.63;5015203;28;20197;-67
2024/03/06 01:46:40;;;;;;;13.37;8.73;;;;;;;4.37;100.00;102454.72;5014483;28;20471;-66
2024/03/06 01:49:05;;;;;;;17.90;8.97;;;;;;;4.63;100.00;102496.09;5011939;28;20830;-68
2024/03/06 01:51:32;;;;;;;14.07;9.00;;;;;;;4.88;100.00;102528.72;5010679;28;20227;-67
2024/03/06 01:53:58;;;;;;;15.80;8.30;;;;;;;4.78;100.00;102533.06;5013649;28;20192;-66
2024/03/06 01:56:23;;;;;;;12.47;8.30;;;;;;;4.71;100.00;102557.44;5011634;28;20478;-66
2024/03/06 01:58:49;;;;;;;17.20;8.80;;;;;;;4.25;100.00;102460.03;5010594;28;20188;-68
2024/03/06 02:01:16;;;;;;;14.17;8.70;;;;;;;4.48;100.00;102511.41;5011491;28;20455;-67
2024/03/06 02:03:44;;;;;;;14.20;8.33;;;;;;;4.20;100.00;102456.88;5011427;28;20184;-67
2024/03/06 02:06:10;;;;;;;15.47;8.90;;;;;;;4.43;100.00;102516.22;5012934;28;20706;-68
2024/03/06 02:08:36;;;;;;;14.43;8.70;;;;;;;4.55;100.00;102545.50;5013456;28;20537;-68
2024/03/06 02:11:03;;;;;;;13.10;8.40;;;;;;;4.63;100.00;102541.28;5018955;28;20825;-67
2024/03/06 02:13:29;;;;;;;14.67;9.40;;;;;;;4.82;100.00;102558.44;5020694;28;20254;-67
2024/03/06 02:15:55;;;;;;;12.30;8.33;;;;;;;4.84;100.00;102573.31;5017043;28;20470;-67
2024/03/06 02:18:21;;;;;;;18.97;8.90;;;;;;;4.86;100.00;102549.25;5026550;28;20452;-67
2024/03/06 02:20:47;;;;;;;14.57;9.13;;;;;;;4.74;100.00;102535.97;5015903;28;20218;-66
2024/03/06 02:23:14;;;;;;;15.93;8.67;;;;;;;4.35;100.00;102459.34;5017019;28;20669;-67
2024/03/06 02:25:40;;;;;;;14.80;9.00;;;;;;;4.82;100.00;102526.53;5015065;28;20439;-67
2024/03/06 02:28:06;;;;;;;13.80;8.63;;;;;;;4.22;100.00;102449.66;5011586;28;20453;-68
2024/03/06 02:30:36;;;;;;;14.93;8.67;;;;;;;4.70;100.00;102512.41;5018944;28;20462;-67
2024/03/06 02:33:04;;;;;;;13.90;8.33;;;;;;;4.98;100.00;102554.47;5012373;28;20174;-67
2024/03/06 02:35:32;;;;;;;14.43;9.00;;;;;;;4.84;100.00;102548.56;5011884;28;20471;-68
2024/03/06 02:37:59;;;;;;;12.07;8.30;;;;;;;4.84;100.00;102564.50;5018159;28;20446;-67
2024/03/06 02:40:25;;;;;;;13.63;8.70;;;;;;;4.77;100.00;102566.75;5016967;28;20464;-67
2024/03/06 02:42:50;;;;;;;13.53;8.70;;;;;;;4.76;100.00;102568.59;5014391;28;20470;-68
2024/03/06 02:45:16;;;;;;;12.53;8.50;;;;;;;4.85;100.00;102584.81;5017539;28;20220;-68
2024/03/06 02:47:41;;;;;;;14.40;8.73;;;;;;;4.78;100.00;102564.97;5016299;28;20203;-68
2024/03/06 02:50:07;;;;;;;11.63;8.13;;;;;;;4.83;100.00;102587.59;5014324;28;20211;-67
2024/03/06 02:52:33;;;;;;;14.03;8.63;;;;;;;4.79;100.00;102586.13;5014759;28;20169;-68
2024/03/06 02:54:59;;;;;;;12.97;9.10;;;;;;;4.80;100.00;102597.59;5013111;28;20455;-67
2024/03/06 02:57:28;;;;;;;13.20;8.33;;;;;;;4.10;100.00;102460.34;5014096;28;20339;-68
2024/03/06 02:59:56;;;;;;;12.67;9.27;;;;;;;4.82;100.00;102595.66;5012206;28;20434;-67
2024/03/06 03:02:21;;;;;;;16.20;8.60;;;;;;;4.86;100.00;102602.44;5017423;28;20525;-68
2024/03/06 03:04:47;;;;;;;12.63;7.90;;;;;;;4.49;100.00;102558.28;5015916;28;20899;-68
2024/03/06 03:07:12;;;;;;;15.23;9.20;;;;;;;4.81;100.00;102625.88;5013269;28;20209;-68
2024/03/06 03:09:38;;;;;;;14.60;9.20;;;;;;;4.59;100.00;102582.31;5015552;28;20184;-66
2024/03/06 03:12:04;;;;;;;13.80;9.03;;;;;;;4.27;100.00;102543.09;5012943;28;20779;-68
2024/03/06 03:14:29;;;;;;;14.50;8.40;;;;;;;4.52;100.00;102575.78;5011597;28;20554;-67
2024/03/06 03:16:55;;;;;;;15.20;8.60;;;;;;;4.51;100.00;102574.09;5017618;28;20227;-67
2024/03/06 03:19:20;;;;;;;14.07;8.90;;;;;;;4.70;100.00;102624.03;5010715;28;20193;-68
2024/03/06 03:21:46;;;;;;;13.90;8.50;;;;;;;4.26;100.00;102561.81;5012840;28;20208;-67
2024/03/06 03:24:11;;;;;;;15.40;9.70;;;;;;;4.46;100.00;102621.44;5015628;28;20607;-68
2024/03/06 03:26:37;;;;;;;12.30;8.40;;;;;;;4.73;100.00;102680.47;5014488;28;20648;-68
2024/03/06 03:29:02;;;;;;;13.07;8.90;;;;;;;4.57;100.00;102671.97;5015764;28;20632;-67
2024/03/06 03:31:28;;;;;;;15.23;8.57;;;;;;;4.72;100.00;102704.53;5016095;28;20221;-68
2024/03/06 03:33:54;;;;;;;12.67;8.60;;;;;;;4.70;100.00;102704.63;5018209;28;20188;-68
2024/03/06 03:36:19;;;;;;;13.53;8.33;;;;;;;4.69;100.00;102708.25;5012996;28;20477;-68
2024/03/06 03:38:45;;;;;;;14.57;9.00;;;;;;;4.58;100.00;102692.25;5015624;28;20228;-68
2024/03/06 03:41:16;;;;;;;15.20;8.90;;;;;;;4.49;100.00;102688.47;5014885;28;20231;-67
2024/03/06 03:43:42;;;;;;;12.83;8.13;;;;;;;4.81;100.00;102718.94;5014705;28;20203;-67
2024/03/06 03:46:08;;;;;;;13.40;8.63;;;;;;;4.76;100.00;102708.66;5018307;28;20439;-68
2024/03/06 03:48:36;;;;;;;14.53;8.80;;;;;;;4.87;100.00;102713.16;5017004;28;20450;-67
2024/03/06 03:51:06;;;;;;;15.27;9.20;;;;;;;4.83;100.00;102711.69;5015452;28;20458;-68
2024/03/06 03:53:32;;;;;;;15.60;9.77;;;;;;;4.84;100.00;102718.72;5012163;28;20439;-68
2024/03/06 03:55:59;;;;;;;13.47;8.53;;;;;;;4.29;100.00;102643.94;5005503;28;20470;-67
2024/03/06 03:58:24;;;;;;;14.00;9.07;;;;;;;4.46;100.00;102645.34;5012659;28;20470;-68
2024/03/06 04:00:52;;;;;;;14.40;8.10;;;;;;;4.53;100.00;102666.00;5015318;28;20468;-68
2024/03/06 04:03:21;;;;;;;12.47;8.50;;;;;;;3.44;100.00;102532.44;5015308;28;20231;-67
2024/03/06 04:05:50;;;;;;;14.73;9.47;;;;;;;4.33;100.00;102632.13;5027810;28;20979;-66
2024/03/06 04:08:15;;;;;;;13.83;7.77;;;;;;;4.11;100.00;102595.69;5021342;28;20456;-66
2024/03/06 04:10:46;;;;;;;12.53;8.30;;;;;;;4.75;100.00;102694.50;5021139;28;20470;-67
2024/03/06 04:13:12;;;;;;;13.10;8.20;;;;;;;4.83;100.00;102691.28;5026841;28;20184;-68
2024/03/06 04:15:38;;;;;;;12.77;8.20;;;;;;;4.80;100.00;102672.03;5013537;28;20518;-68
2024/03/06 04:18:04;;;;;;;12.87;8.73;;;;;;;4.72;100.00;102668.16;5014771;28;20475;-67
2024/03/06 04:20:31;;;;;;;14.40;8.93;;;;;;;4.61;100.00;102638.88;5012355;28;20201;-67
2024/03/06 04:22:57;;;;;;;14.53;8.87;;;;;;;4.84;100.00;102662.88;5015061;28;20184;-67
2024/03/06 04:25:23;;;;;;;12.83;8.60;;;;;;;4.26;100.00;102575.94;5017458;28;20442;-68
2024/03/06 04:27:49;;;;;;;14.63;8.50;;;;;;;4.59;100.00;102638.13;5014186;28;20271;-67
2024/03/06 04:30:15;;;;;;;14.53;9.33;;;;;;;4.69;100.00;102639.16;5010276;28;20901;-67
2024/03/06 04:32:41;;;;;;;13.97;9.60;;;;;;;4.44;100.00;102579.03;5014367;28;20442;-67
2024/03/06 04:35:08;;;;;;;12.33;8.00;;;;;;;4.70;100.00;102616.91;5015311;28;20216;-68
2024/03/06 04:37:34;;;;;;;12.10;7.53;;;;;;;4.52;100.00;102599.72;5016989;28;20184;-68
2024/03/06 04:40:00;;;;;;;15.20;8.20;;;;;;;4.38;100.00;102568.03;5010449;28;21090;-68
2024/03/06 04:42:25;;;;;;;13.83;8.20;;;;;;;4.44;100.00;102604.75;5024554;28;20434;-67
2024/03/06 04:44:51;;;;;;;14.30;8.70;;;;;;;4.49;100.00;102607.91;5011018;28;20197;-68
2024/03/06 04:47:16;;;;;;;12.53;7.67;;;;;;;4.16;100.00;102553.69;5011360;28;20196;-68
2024/03/06 04:49:42;;;;;;;15.27;9.00;;;;;;;4.40;100.00;102611.28;5012785;28;20200;-68
2024/03/06 04:52:09;;;;;;;15.23;9.00;;;;;;;4.60;100.00;102631.00;5015069;28;20635;-68
2024/03/06 04:54:34;;;;;;;16.10;9.67;;;;;;;4.67;100.00;102645.53;5014750;28;20195;-67
2024/03/06 04:57:00;;;;;;;13.60;8.30;;;;;;;4.76;100.00;102658.13;5008696;28;20475;-68
2024/03/06 04:59:26;;;;;;;13.77;8.57;;;;;;;4.76;100.00;102652.81;5010712;28;20193;-68
2024/03/06 05:01:52;;;;;;;13.20;9.03;;;;;;;4.81;100.00;102671.94;5012066;28;20205;-68
2024/03/06 05:04:17;;;;;;;12.70;8.37;;;;;;;4.77;100.00;102665.13;5007649;28;20455;-68
2024/03/06 05:06:43;;;;;;;12.77;7.90;;;;;;;4.73;100.00;102655.72;5008671;28;20455;-67
2024/03/06 05:09:11;;;;;;;13.93;8.30;;;;;;;4.61;100.00;102646.00;5013659;28;20192;-67
2024/03/06 05:11:38;;;;;;;12.53;8.93;;;;;;;4.43;100.00;102635.78;5012527;28;20219;-67
2024/03/06 05:14:03;;;;;;;13.63;8.60;;;;;;;4.60;100.00;102654.94;5021953;28;20442;-67
2024/03/06 05:16:29;;;;;;;13.97;9.83;;;;;;;4.53;100.00;102644.75;5014542;28;20466;-68
2024/03/06 05:18:55;;;;;;;14.53;8.70;;;;;;;3.97;100.00;102538.28;5031390;28;20180;-68
2024/03/06 05:21:22;;;;;;;16.30;9.17;;;;;;;4.22;100.00;102601.06;5018348;28;20283;-68
2024/03/06 05:23:48;;;;;;;13.23;8.67;;;;;;;4.00;100.00;102577.03;5029195;28;20555;-67
2024/03/06 05:26:14;;;;;;;14.90;9.37;;;;;;;4.47;100.00;102655.84;5013232;28;20443;-67
2024/03/06 05:28:40;;;;;;;13.50;9.10;;;;;;;4.47;100.00;102669.13;5015934;28;20432;-68
2024/03/06 05:31:19;;;;;;;17.67;9.47;;;;;;;4.66;100.00;102708.50;5013861;28;20914;-68
2024/03/06 05:33:47;;;;;;;12.93;8.50;;;;;;;4.74;100.00;102716.75;5028576;28;20199;-68
2024/03/06 05:36:17;;;;;;;14.20;9.17;;;;;;;4.67;100.00;102725.28;5013368;28;20482;-67
2024/03/06 05:38:43;;;;;;;17.83;9.50;;;;;;;4.53;100.00;102683.78;5009372;28;20478;-67
2024/03/06 05:41:08;;;;;;;11.63;8.03;;;;;;;4.64;100.00;102723.69;5003274;28;20470;-67
2024/03/06 05:43:34;;;;;;;15.33;9.47;;;;;;;4.21;100.00;102641.84;5013237;28;20458;-67
2024/03/06 05:46:00;;;;;;;13.53;8.60;;;;;;;4.62;100.00;102716.78;5016758;28;20197;-68
2024/03/06 05:48:26;;;;;;;14.50;9.13;;;;;;;4.63;100.00;102719.34;5015670;28;20185;-68
2024/03/06 05:50:52;;;;;;;14.47;9.00;;;;;;;4.71;100.00;102708.97;5011308;28;20493;-66
2024/03/06 05:53:18;;;;;;;14.87;8.27;;;;;;;4.72;100.00;102696.56;5007255;28;20442;-68
2024/03/06 05:55:43;;;;;;;13.30;8.60;;;;;;;4.47;100.00;102655.00;5012933;28;20557;-67
2024/03/06 05:58:09;;;;;;;11.30;7.83;;;;;;;4.52;100.00;102656.38;5021087;28;20245;-67
2024/03/06 06:00:35;;;;;;;15.90;9.27;;;;;;;4.62;100.00;102680.44;5010466;28;20910;-68
2024/03/06 06:03:00;;;;;;;14.30;8.87;;;;;;;4.42;100.00;102641.22;5020060;28;20188;-67
2024/03/06 06:05:25;;;;;;;14.40;8.93;;;;;;;4.19;100.00;102597.75;5019725;28;20208;-66
2024/03/06 06:07:51;;;;;;;12.93;8.27;;;;;;;4.63;100.00;102660.00;5009985;28;20601;-68
2024/03/06 06:10:17;;;;;;;12.33;7.13;;;;;;;4.60;100.00;102646.94;5010680;28;20208;-68
2024/03/06 06:12:42;;;;;;;13.00;9.13;;;;;;;4.55;100.00;102654.44;5014881;28;20192;-67
2024/03/06 06:15:08;;;;;;;13.00;8.90;;;;;;;4.67;100.00;102658.84;5013138;28;20513;-67
2024/03/06 06:17:34;;;;;;;13.60;8.70;;;;;;;4.61;100.00;102667.28;5018378;28;20185;-67
2024/03/06 06:20:00;;;;;;;12.40;8.53;;;;;;;4.64;100.00;102649.28;5014006;28;20450;-68
2024/03/06 06:22:28;;;;;;;13.97;9.50;;;;;;;4.64;100.00;102643.13;5014117;28;20849;-68
2024/03/06 06:24:55;;;;;;;19.27;9.10;;;;;;;4.67;100.00;102629.59;5012531;28;20276;-68
2024/03/06 06:27:21;;;;;;;14.93;9.50;;;;;;;4.56;100.00;102590.53;5008942;28;20471;-67
2024/03/06 06:29:46;;;;;;;13.60;9.20;;;;;;;4.55;100.00;102598.63;5015608;28;20897;-68
2024/03/06 06:32:12;;;;;;;14.73;9.70;;;;;;;4.48;100.00;102588.47;5008113;28;20270;-68
2024/03/06 06:34:37;;;;;;;14.33;8.27;;;;;;;4.66;100.00;102634.06;5010698;28;20863;-67
2024/03/06 06:37:03;;;;;;;12.50;8.67;;;;;;;4.76;100.00;102632.38;5019361;28;20209;-67
2024/03/06 06:39:28;;;;;;;14.00;8.13;;;;;;;4.71;100.00;102615.09;5008689;28;20188;-70
2024/03/06 06:41:54;;;;;;;14.60;9.00;;;;;;;4.72;100.00;102617.66;5020317;28;20209;-66
2024/03/06 06:44:19;;;;;;;13.50;8.70;;;;;;;4.56;100.00;102587.03;5012189;28;20770;-66
2024/03/06 06:46:44;;;;;;;13.90;9.57;;;;;;;4.72;100.00;102612.34;5011409;28;20227;-68
2024/03/06 06:49:10;;;;;;;14.70;8.73;;;;;;;4.66;100.00;102614.63;5011592;28;20184;-66
2024/03/06 06:51:35;;;;;;;13.40;8.13;;;;;;;4.52;100.00;102573.97;5009724;28;20266;-68
2024/03/06 06:54:01;;;;;;;15.67;8.93;;;;;;;4.83;100.00;102640.78;5014013;28;20193;-68
2024/03/06 06:56:27;;;;;;;14.90;9.27;;;;;;;4.72;100.00;102624.78;5009538;28;20647;-68
2024/03/06 06:58:53;;;;;;;15.03;9.33;;;;;;;4.69;100.00;102628.50;5009117;28;20185;-68
2024/03/06 07:01:18;;;;;;;18.10;9.87;;;;;;;4.73;100.00;102666.34;5014388;28;20473;-67
2024/03/06 07:03:44;;;;;;;14.53;9.47;;;;;;;4.40;100.00;102622.75;5018428;28;20195;-67
2024/03/06 07:06:10;;;;;;;17.93;10.07;;;;;;;4.56;100.00;102674.72;5004113;28;20188;-68
2024/03/06 07:08:37;;;;;;;15.80;8.63;;;;;;;4.74;100.00;102708.78;5008254;28;20250;-68
2024/03/06 07:11:02;;;;;;;15.10;10.03;;;;;;;4.53;100.00;102697.06;5012590;28;21018;-68
2024/03/06 07:13:28;;;;;;;15.00;9.33;;;;;;;4.60;100.00;102719.59;5013470;28;20450;-68
2024/03/06 07:15:53;;;;;;;14.20;9.40;;;;;;;4.68;100.00;102722.50;5013161;28;20213;-67
2024/03/06 07:18:19;;;;;;;14.60;8.97;;;;;;;4.48;100.00;102686.78;4998357;28;20936;-67
2024/03/06 07:20:44;;;;;;;14.20;9.10;;;;;;;4.23;100.00;102631.13;5007598;28;20217;-68
2024/03/06 07:23:09;;;;;;;13.37;9.20;;;;;;;4.35;100.00;102663.91;5008858;28;20697;-68
2024/03/06 07:25:35;;;;;;;13.93;8.43;;;;;;;4.03;100.00;102609.53;5012020;28;20235;-67
2024/03/06 07:28:01;;;;;;;16.23;9.50;;;;;;;4.81;100.00;102730.44;5010628;28;20204;-68
2024/03/06 07:30:29;;;;;;;16.40;10.00;;;;;;;4.66;100.00;102707.66;5008665;28;20460;-68
2024/03/06 07:32:55;;;;;;;13.80;9.70;;;;;;;4.66;100.00;102710.31;5012935;28;20235;-68
2024/03/06 07:35:20;;;;;;;14.53;9.17;;;;;;;4.41;100.00;102661.63;5009089;28;22205;-67
2024/03/06 07:37:46;;;;;;;15.07;9.03;;;;;;;4.72;100.00;102692.09;5010775;28;20200;-68
2024/03/06 07:40:12;;;;;;;12.50;8.60;;;;;;;4.75;100.00;102693.66;5016214;28;20299;-67
2024/03/06 07:42:38;;;;;;;13.77;8.17;;;;;;;4.93;100.00;102718.03;5011155;28;20529;-68
2024/03/06 07:45:05;;;;;;;16.23;8.70;;;;;;;4.76;100.00;102698.84;5010171;28;20311;-68
2024/03/06 07:47:30;;;;;;;18.13;8.80;;;;;;;4.91;100.00;102718.13;5009384;28;20449;-68
2024/03/06 07:49:56;;;;;;;14.30;9.50;;;;;;;4.73;100.00;102690.25;5009672;28;20450;-68
2024/03/06 07:52:21;;;;;;;15.77;8.70;;;;;;;4.49;100.00;102634.50;5007955;28;20192;-68
2024/03/06 07:54:47;;;;;;;17.23;9.50;;;;;;;5.05;100.00;102725.06;5017310;28;20198;-67
2024/03/06 07:57:12;;;;;;;13.43;9.10;;;;;;;5.08;100.00;102719.50;5013158;28;20271;-68
2024/03/06 07:59:38;;;;;;;14.20;9.00;;;;;;;5.01;100.00;102707.66;5023285;28;20213;-68
2024/03/06 08:02:04;;;;;;;14.63;8.63;;;;;;;5.16;100.00;102726.91;5011952;28;20208;-68
2024/03/06 08:04:30;;;;;;;13.87;8.63;;;;;;;5.04;100.00;102710.06;5007070;28;20192;-68
2024/03/06 08:06:55;;;;;;;13.70;9.00;;;;;;;5.05;100.00;102710.91;5010817;28;20461;-68
2024/03/06 08:09:21;;;;;;;15.80;9.67;;;;;;;5.05;100.00;102705.59;5007676;28;20189;-68
2024/03/06 08:11:46;;;;;;;12.37;8.50;;;;;;;5.11;100.00;102710.44;5015340;28;20213;-68
2024/03/06 08:14:14;;;;;;;14.40;9.50;;;;;;;5.10;100.00;102703.44;5011186;28;20188;-68
2024/03/06 08:16:40;;;;;;;12.93;9.00;;;;;;;4.83;100.00;102658.50;5013686;28;20694;-68
2024/03/06 08:19:05;;;;;;;13.13;9.07;;;;;;;4.98;100.00;102698.09;5011650;28;20455;-68
2024/03/06 08:21:30;;;;;;;15.90;9.10;;;;;;;4.84;100.00;102650.44;5004015;28;20213;-68
2024/03/06 08:23:56;;;;;;;12.67;8.70;;;;;;;5.18;100.00;102555.56;5012454;28;20659;-67
2024/03/06 08:26:22;;;;;;;16.27;7.90;;;;;;;4.92;100.00;102532.84;5011601;28;20571;-68
2024/03/06 08:28:48;;;;;;;15.20;9.40;;;;;;;5.20;100.00;102566.91;5011087;28;20443;-66
2024/03/06 08:31:14;;;;;;;13.77;8.30;;;;;;;5.32;100.00;102557.16;5011253;28;20487;-67
2024/03/06 08:33:39;;;;;;;13.87;9.30;;;;;;;4.92;100.00;102501.78;5006387;28;20485;-68
2024/03/06 08:36:05;;;;;;;13.07;9.07;;;;;;;5.14;100.00;102519.53;5012322;28;20954;-68
2024/03/06 08:38:30;;;;;;;14.87;9.70;;;;;;;5.24;100.00;102534.78;5011709;28;20296;-67
2024/03/06 08:40:56;;;;;;;14.43;9.03;;;;;;;4.83;100.00;102475.94;5010781;28;20239;-68
2024/03/06 08:43:21;;;;;;;15.40;8.90;;;;;;;5.13;100.00;102522.31;5013794;28;20189;-68
2024/03/06 08:45:47;;;;;;;13.60;8.90;;;;;;;5.03;100.00;102497.41;5012849;28;20196;-67
2024/03/06 08:48:12;;;;;;;13.10;8.73;;;;;;;5.24;100.00;102510.84;5007125;28;20189;-67
2024/03/06 08:50:38;;;;;;;14.07;9.20;;;;;;;5.45;100.00;102533.03;5006116;28;20212;-67
2024/03/06 08:53:04;;;;;;;15.90;9.90;;;;;;;5.53;100.00;102525.28;5010657;28;20188;-67
2024/03/06 08:55:29;;;;;;;11.70;8.30;;;;;;;5.26;100.00;102474.28;5010547;28;20481;-67
2024/03/06 08:57:55;;;;;;;13.20;9.30;;;;;;;5.59;100.00;102522.13;5009337;28;20211;-66
2024/03/06 09:00:20;;;;;;;13.90;9.27;;;;;;;5.18;100.00;102441.19;5006588;28;20284;-67
2024/03/06 09:02:46;;;;;;;14.60;9.40;;;;;;;5.57;100.00;102483.28;5012135;28;20242;-68
2024/03/06 09:05:12;;;;;;;14.40;8.90;;;;;;;5.82;100.00;102509.59;5009179;28;20173;-67
2024/03/06 09:07:40;;;;;;;13.10;9.00;;;;;;;5.68;100.00;102485.91;5003245;28;20177;-67
2024/03/06 09:10:06;;;;;;;16.87;10.10;;;;;;;5.78;100.00;102513.47;5012060;28;20969;-68
2024/03/06 09:12:32;;;;;;;14.70;8.60;;;;;;;5.75;100.00;102512.88;5008517;28;20969;-68
2024/03/06 09:15:00;;;;;;;15.30;10.03;;;;;;;5.75;100.00;102483.59;5009913;28;20457;-67
2024/03/06 09:17:26;;;;;;;13.53;9.03;;;;;;;5.81;100.00;102483.06;5009370;28;20453;-68
2024/03/06 09:19:52;;;;;;;15.57;9.50;;;;;;;5.81;100.00;102478.59;5006790;28;20439;-68
2024/03/06 09:22:17;;;;;;;12.63;9.03;;;;;;;5.81;100.00;102477.75;5006963;28;20474;-68
2024/03/06 09:24:42;;;;;;;20.03;8.93;;;;;;;5.77;100.00;102471.84;5005327;28;20180;-67
2024/03/06 09:27:08;;;;;;;16.47;9.70;;;;;;;5.73;100.00;102465.09;5011924;28;20911;-68
2024/03/06 09:29:33;;;;;;;13.67;9.43;;;;;;;5.58;100.00;102427.28;5011391;28;20198;-68
2024/03/06 09:31:59;;;;;;;18.37;9.93;;;;;;;5.93;100.00;102460.81;5011058;28;20215;-68
2024/03/06 09:34:24;;;;;;;15.70;10.10;;;;;;;5.97;100.00;102438.25;5008018;28;20195;-68
2024/03/06 09:36:50;;;;;;;15.83;9.00;;;;;;;6.28;100.00;102494.28;5011864;28;20209;-67
2024/03/06 09:39:28;;;;;;;14.37;9.63;;;;;;;6.42;100.00;102490.41;5009313;28;20176;-66
2024/03/06 09:41:54;;;;;;;13.50;9.93;;;;;;;6.49;100.00;102479.09;5011203;28;20207;-68
2024/03/06 09:44:21;;;;;;;14.63;9.40;;;;;;;6.39;100.00;102450.69;5012071;28;20451;-68
2024/03/06 09:46:48;;;;;;;15.47;9.20;;;;;;;6.64;100.00;102463.59;5006537;28;20493;-68
2024/03/06 09:49:19;;;;;;;15.87;10.43;;;;;;;6.52;100.00;102428.19;5004622;28;20448;-68
2024/03/06 09:51:52;;;;;;;15.03;10.20;;;;;;;6.56;100.00;102423.44;5021098;28;20520;-67
2024/03/06 09:54:19;;;;;;;12.80;9.50;;;;;;;6.81;100.00;102437.31;5002370;28;20452;-67
2024/03/06 09:56:45;;;;;;;17.00;10.30;;;;;;;6.61;100.00;102415.03;5022035;28;20495;-68
2024/03/06 09:59:11;;;;;;;15.23;9.47;;;;;;;6.62;100.00;102392.72;5008645;28;20838;-67
2024/03/06 10:01:53;;;;;;;18.57;10.63;;;;;;;5.49;100.00;102240.88;5015014;28;20455;-68
2024/03/06 10:04:26;;;;;;;15.23;9.90;;;;;;;7.04;100.00;102432.59;5012692;28;20433;-67
2024/03/06 10:06:56;;;;;;;14.23;9.67;;;;;;;6.60;100.00;102373.38;5014784;28;20803;-68
2024/03/06 10:09:22;;;;;;;16.20;11.00;;;;;;;6.87;100.00;102416.25;5013577;28;20431;-67
2024/03/06 10:11:47;;;;;;;14.73;9.77;;;;;;;6.66;100.00;102392.34;5008627;28;20468;-67
2024/03/06 10:14:13;;;;;;;13.80;9.40;;;;;;;6.82;100.00;102413.16;5007044;28;20180;-68
2024/03/06 10:16:59;;;;;;;14.93;9.90;;;;;;;7.00;100.00;102451.53;5014817;28;20318;-68
2024/03/06 10:19:27;;;;;;;14.23;9.63;;;;;;;6.97;100.00;102434.94;5007262;28;20435;-68
2024/03/06 10:21:53;;;;;;;16.60;10.20;;;;;;;6.97;100.00;102461.63;4999555;28;20456;-68
2024/03/06 10:24:20;;;;;;;14.33;10.20;;;;;;;6.91;100.00;102460.34;5009691;28;20439;-68
2024/03/06 10:26:46;;;;;;;13.67;8.80;;;;;;;6.46;100.00;102393.25;5014141;28;20466;-67
2024/03/06 10:29:18;;;;;;;16.53;9.30;;;;;;;6.87;100.00;102458.09;5024861;28;20430;-68
2024/03/06 10:31:54;;;;;;;15.83;10.40;;;;;;;6.98;100.00;102448.16;5014248;28;20462;-67
2024/03/06 10:34:20;;;;;;;15.47;10.50;;;;;;;7.06;100.00;102462.63;5012523;28;20496;-68
2024/03/06 10:37:01;;;;;;;14.37;10.17;;;;;;;7.12;100.00;102473.63;5012546;28;20545;-68
2024/03/06 10:39:27;;;;;;;16.80;10.37;;;;;;;6.54;100.00;102375.59;5011139;28;20533;-67
2024/03/06 10:41:54;;;;;;;15.00;10.07;;;;;;;7.34;100.00;102480.53;5012323;28;20467;-68
2024/03/06 10:44:26;;;;;;;15.40;10.60;;;;;;;4.83;100.00;102085.13;5065849;22;20515;-81
2024/03/06 10:47:00;;;;;;;14.33;9.60;;;;;;;4.83;100.00;102086.91;5074997;28;20816;-81
2024/03/06 10:49:27;;;;;;;18.20;10.40;;;;;;;4.37;100.00;101996.00;5088989;28;20452;-81
2024/03/06 10:51:57;;;;;;;19.03;10.10;;;;;;;4.50;100.00;102071.03;5095796;28;20437;-81
2024/03/06 10:54:26;;;;;;;14.83;10.47;;;;;;;4.44;100.00;102023.72;5093956;28;20436;-81
2024/03/06 10:56:54;;;;;;;17.90;11.30;;;;;;;4.87;100.00;102112.28;5096762;28;21032;-80
2024/03/06 10:59:20;;;;;;;17.13;10.97;;;;;;;6.26;100.00;102363.81;5091135;28;20463;-79
2024/03/06 11:01:47;;;;;;;17.67;9.43;;;;;;;6.04;100.00;102327.53;5091043;28;20429;-80
2024/03/06 11:04:13;;;;;;;15.63;10.30;;;;;;;4.41;100.00;101973.50;5095195;28;20433;-80
2024/03/06 11:06:39;;;;;;;19.57;12.50;;;;;;;7.56;100.00;102543.56;5086508;28;20440;-80
2024/03/06 11:09:06;;;;;;;17.47;11.90;;;;;;;4.79;100.00;102057.09;5095663;28;20233;-81
2024/03/06 11:11:32;;;;;;;18.13;11.50;;;;;;;5.11;100.00;102088.06;5098885;28;20432;-80
2024/03/06 11:14:03;;;;;;;15.97;11.23;;;;;;;4.66;100.00;102003.31;5088974;28;20512;-80